Terminal Aerodrome Forecast
Issued by NWS

Home | Current Version | Previous Version | Text Only | Print | Product List | Glossary On
Versions: 1 2 3 4 5 6 7 8 9 10 11 12 13 14 15 16 17 18 19 20 21 22 23 24 25 26 27 28 29 30 31 32 33 34 35 36 37 38 39 40 41 42 43 44
000
FTAK31 PANC 251740
TAFASN
TAF
PASN 251740Z 2518/2618 23017KT P6SM VCSH SCT025 BKN050
      TEMPO 2518/2522 -SHRA BKN025
     FM252200 22018G25KT P6SM -SHRA SCT015 BKN025
     FM260100 22020G28KT 4SM -RA BR BKN015
     FM260500 30018KT 3SM -RA BR BKN010
     FM260800 32015KT P6SM -SHRA SCT015 BKN030=

USA.gov is the U.S. government's official web portal to all federal, state and local government web resources and services.